sensor_id;sensor_type;location;lat;lon;timestamp;P1;durP1;ratioP1;P2;durP2;ratioP2
7471;SDS011;3777;48.722;8.110;2023-03-01T00:00:18;21.23;;;14.80;;
7471;SDS011;3777;48.722;8.110;2023-03-01T00:02:45;18.30;;;13.43;;
7471;SDS011;3777;48.722;8.110;2023-03-01T00:05:12;20.23;;;13.97;;
7471;SDS011;3777;48.722;8.110;2023-03-01T00:07:39;20.47;;;14.00;;
7471;SDS011;3777;48.722;8.110;2023-03-01T00:10:06;20.40;;;14.40;;
7471;SDS011;3777;48.722;8.110;2023-03-01T00:12:36;18.97;;;13.67;;
7471;SDS011;3777;48.722;8.110;2023-03-01T00:15:03;18.17;;;13.53;;
7471;SDS011;3777;48.722;8.110;2023-03-01T00:17:30;18.83;;;13.70;;
7471;SDS011;3777;48.722;8.110;2023-03-01T00:19:57;21.03;;;14.07;;
7471;SDS011;3777;48.722;8.110;2023-03-01T00:22:26;21.03;;;14.43;;
7471;SDS011;3777;48.722;8.110;2023-03-01T00:24:54;23.30;;;14.40;;
7471;SDS011;3777;48.722;8.110;2023-03-01T00:27:21;19.00;;;13.30;;
7471;SDS011;3777;48.722;8.110;2023-03-01T00:29:49;19.90;;;13.97;;
7471;SDS011;3777;48.722;8.110;2023-03-01T00:32:16;19.10;;;13.73;;
7471;SDS011;3777;48.722;8.110;2023-03-01T00:34:43;20.03;;;14.57;;
7471;SDS011;3777;48.722;8.110;2023-03-01T00:37:19;19.03;;;13.90;;
7471;SDS011;3777;48.722;8.110;2023-03-01T00:39:46;22.03;;;14.47;;
7471;SDS011;3777;48.722;8.110;2023-03-01T00:42:13;18.80;;;13.73;;
7471;SDS011;3777;48.722;8.110;2023-03-01T00:44:40;19.67;;;13.53;;
7471;SDS011;3777;48.722;8.110;2023-03-01T00:47:08;19.57;;;13.80;;
7471;SDS011;3777;48.722;8.110;2023-03-01T00:49:35;17.70;;;12.90;;
7471;SDS011;3777;48.722;8.110;2023-03-01T00:52:02;17.83;;;13.60;;
7471;SDS011;3777;48.722;8.110;2023-03-01T00:54:29;18.27;;;13.50;;
7471;SDS011;3777;48.722;8.110;2023-03-01T00:56:56;20.27;;;13.90;;
7471;SDS011;3777;48.722;8.110;2023-03-01T00:59:23;18.50;;;14.73;;
7471;SDS011;3777;48.722;8.110;2023-03-01T01:01:50;16.43;;;13.30;;
7471;SDS011;3777;48.722;8.110;2023-03-01T01:04:18;20.17;;;14.40;;
7471;SDS011;3777;48.722;8.110;2023-03-01T01:06:45;20.07;;;13.83;;
7471;SDS011;3777;48.722;8.110;2023-03-01T01:09:13;18.83;;;13.23;;
7471;SDS011;3777;48.722;8.110;2023-03-01T01:11:43;18.23;;;13.23;;
7471;SDS011;3777;48.722;8.110;2023-03-01T01:14:11;19.83;;;14.17;;
7471;SDS011;3777;48.722;8.110;2023-03-01T01:16:38;16.77;;;12.57;;
7471;SDS011;3777;48.722;8.110;2023-03-01T01:19:05;17.83;;;13.83;;
7471;SDS011;3777;48.722;8.110;2023-03-01T01:21:34;18.23;;;13.30;;
7471;SDS011;3777;48.722;8.110;2023-03-01T01:24:02;19.23;;;13.37;;
7471;SDS011;3777;48.722;8.110;2023-03-01T01:26:30;20.13;;;13.80;;
7471;SDS011;3777;48.722;8.110;2023-03-01T01:28:58;20.80;;;13.93;;
7471;SDS011;3777;48.722;8.110;2023-03-01T01:31:26;18.10;;;13.07;;
7471;SDS011;3777;48.722;8.110;2023-03-01T01:33:55;16.97;;;12.87;;
7471;SDS011;3777;48.722;8.110;2023-03-01T01:36:22;18.90;;;12.80;;
7471;SDS011;3777;48.722;8.110;2023-03-01T01:38:51;19.27;;;13.97;;
7471;SDS011;3777;48.722;8.110;2023-03-01T01:41:18;20.97;;;13.60;;
7471;SDS011;3777;48.722;8.110;2023-03-01T01:43:47;18.17;;;13.00;;
7471;SDS011;3777;48.722;8.110;2023-03-01T01:46:19;18.10;;;13.60;;
7471;SDS011;3777;48.722;8.110;2023-03-01T01:48:52;18.60;;;13.60;;
7471;SDS011;3777;48.722;8.110;2023-03-01T01:51:24;18.27;;;13.27;;
7471;SDS011;3777;48.722;8.110;2023-03-01T01:53:57;18.13;;;13.47;;
7471;SDS011;3777;48.722;8.110;2023-03-01T01:56:26;16.97;;;13.17;;
7471;SDS011;3777;48.722;8.110;2023-03-01T01:58:56;22.23;;;14.63;;
7471;SDS011;3777;48.722;8.110;2023-03-01T02:01:23;18.70;;;12.67;;
7471;SDS011;3777;48.722;8.110;2023-03-01T02:03:51;19.43;;;13.63;;
7471;SDS011;3777;48.722;8.110;2023-03-01T02:06:20;17.53;;;13.80;;
7471;SDS011;3777;48.722;8.110;2023-03-01T02:08:53;18.87;;;13.90;;
7471;SDS011;3777;48.722;8.110;2023-03-01T02:11:25;18.67;;;13.43;;
7471;SDS011;3777;48.722;8.110;2023-03-01T02:13:53;17.90;;;13.50;;
7471;SDS011;3777;48.722;8.110;2023-03-01T02:16:21;17.83;;;13.07;;
7471;SDS011;3777;48.722;8.110;2023-03-01T02:18:48;18.77;;;13.43;;
7471;SDS011;3777;48.722;8.110;2023-03-01T02:21:26;19.50;;;13.50;;
7471;SDS011;3777;48.722;8.110;2023-03-01T02:24:03;22.63;;;13.87;;
7471;SDS011;3777;48.722;8.110;2023-03-01T02:26:45;18.13;;;13.03;;
7471;SDS011;3777;48.722;8.110;2023-03-01T02:29:17;18.00;;;13.43;;
7471;SDS011;3777;48.722;8.110;2023-03-01T02:31:44;18.37;;;13.73;;
7471;SDS011;3777;48.722;8.110;2023-03-01T02:34:12;19.17;;;14.23;;
7471;SDS011;3777;48.722;8.110;2023-03-01T02:36:43;20.40;;;14.37;;
7471;SDS011;3777;48.722;8.110;2023-03-01T02:39:14;19.90;;;13.27;;
7471;SDS011;3777;48.722;8.110;2023-03-01T02:41:45;18.63;;;14.00;;
7471;SDS011;3777;48.722;8.110;2023-03-01T02:44:14;20.13;;;14.67;;
7471;SDS011;3777;48.722;8.110;2023-03-01T02:46:43;19.70;;;13.40;;
7471;SDS011;3777;48.722;8.110;2023-03-01T02:49:19;20.03;;;14.13;;
7471;SDS011;3777;48.722;8.110;2023-03-01T02:55:04;21.60;;;14.07;;
7471;SDS011;3777;48.722;8.110;2023-03-01T02:57:35;21.83;;;14.40;;
7471;SDS011;3777;48.722;8.110;2023-03-01T03:00:05;19.27;;;14.57;;
7471;SDS011;3777;48.722;8.110;2023-03-01T03:02:35;18.73;;;13.57;;
7471;SDS011;3777;48.722;8.110;2023-03-01T03:05:04;19.00;;;13.33;;
7471;SDS011;3777;48.722;8.110;2023-03-01T03:07:33;18.17;;;13.50;;
7471;SDS011;3777;48.722;8.110;2023-03-01T03:10:01;20.87;;;14.73;;
7471;SDS011;3777;48.722;8.110;2023-03-01T03:12:29;17.70;;;13.30;;
7471;SDS011;3777;48.722;8.110;2023-03-01T03:14:56;19.87;;;13.73;;
7471;SDS011;3777;48.722;8.110;2023-03-01T03:17:23;18.77;;;14.63;;
7471;SDS011;3777;48.722;8.110;2023-03-01T03:19:52;22.07;;;13.83;;
7471;SDS011;3777;48.722;8.110;2023-03-01T03:22:19;18.43;;;13.40;;
7471;SDS011;3777;48.722;8.110;2023-03-01T03:24:46;19.90;;;13.90;;
7471;SDS011;3777;48.722;8.110;2023-03-01T03:27:12;19.10;;;13.80;;
7471;SDS011;3777;48.722;8.110;2023-03-01T03:29:39;18.27;;;13.87;;
7471;SDS011;3777;48.722;8.110;2023-03-01T03:32:06;22.50;;;13.93;;
7471;SDS011;3777;48.722;8.110;2023-03-01T03:34:33;18.20;;;14.10;;
7471;SDS011;3777;48.722;8.110;2023-03-01T03:37:01;18.67;;;14.07;;
7471;SDS011;3777;48.722;8.110;2023-03-01T03:39:28;19.43;;;14.77;;
7471;SDS011;3777;48.722;8.110;2023-03-01T03:42:00;21.27;;;15.27;;
7471;SDS011;3777;48.722;8.110;2023-03-01T03:44:27;18.60;;;14.33;;
7471;SDS011;3777;48.722;8.110;2023-03-01T03:46:54;20.30;;;14.57;;
7471;SDS011;3777;48.722;8.110;2023-03-01T03:49:21;19.77;;;15.23;;
7471;SDS011;3777;48.722;8.110;2023-03-01T03:51:48;19.13;;;13.93;;
7471;SDS011;3777;48.722;8.110;2023-03-01T03:54:17;17.80;;;13.43;;
7471;SDS011;3777;48.722;8.110;2023-03-01T03:56:44;23.70;;;16.37;;
7471;SDS011;3777;48.722;8.110;2023-03-01T03:59:11;23.47;;;15.97;;
7471;SDS011;3777;48.722;8.110;2023-03-01T04:01:37;20.63;;;14.67;;
7471;SDS011;3777;48.722;8.110;2023-03-01T04:04:04;19.87;;;14.60;;
7471;SDS011;3777;48.722;8.110;2023-03-01T04:06:32;21.30;;;14.77;;
7471;SDS011;3777;48.722;8.110;2023-03-01T04:08:59;19.83;;;13.83;;
7471;SDS011;3777;48.722;8.110;2023-03-01T04:11:29;20.20;;;14.33;;
7471;SDS011;3777;48.722;8.110;2023-03-01T04:13:57;22.63;;;15.53;;
7471;SDS011;3777;48.722;8.110;2023-03-01T04:16:25;19.33;;;14.70;;
7471;SDS011;3777;48.722;8.110;2023-03-01T04:18:52;20.87;;;14.67;;
7471;SDS011;3777;48.722;8.110;2023-03-01T04:21:19;23.17;;;16.17;;
7471;SDS011;3777;48.722;8.110;2023-03-01T04:23:47;22.67;;;16.30;;
7471;SDS011;3777;48.722;8.110;2023-03-01T04:26:17;20.80;;;15.10;;
7471;SDS011;3777;48.722;8.110;2023-03-01T04:28:46;23.40;;;15.10;;
7471;SDS011;3777;48.722;8.110;2023-03-01T04:31:15;25.23;;;17.60;;
7471;SDS011;3777;48.722;8.110;2023-03-01T04:33:46;26.57;;;17.37;;
7471;SDS011;3777;48.722;8.110;2023-03-01T04:36:16;24.07;;;17.00;;
7471;SDS011;3777;48.722;8.110;2023-03-01T04:38:45;26.30;;;17.23;;
7471;SDS011;3777;48.722;8.110;2023-03-01T04:41:13;27.73;;;17.90;;
7471;SDS011;3777;48.722;8.110;2023-03-01T04:43:41;27.30;;;17.03;;
7471;SDS011;3777;48.722;8.110;2023-03-01T04:46:10;23.20;;;16.33;;
7471;SDS011;3777;48.722;8.110;2023-03-01T04:48:40;24.53;;;16.00;;
7471;SDS011;3777;48.722;8.110;2023-03-01T04:51:08;23.27;;;16.23;;
7471;SDS011;3777;48.722;8.110;2023-03-01T04:53:38;20.77;;;14.87;;
7471;SDS011;3777;48.722;8.110;2023-03-01T04:56:06;21.70;;;15.07;;
7471;SDS011;3777;48.722;8.110;2023-03-01T04:58:33;23.20;;;16.43;;
7471;SDS011;3777;48.722;8.110;2023-03-01T05:01:00;19.33;;;15.33;;
7471;SDS011;3777;48.722;8.110;2023-03-01T05:03:28;24.37;;;16.33;;
7471;SDS011;3777;48.722;8.110;2023-03-01T05:05:58;23.87;;;16.50;;
7471;SDS011;3777;48.722;8.110;2023-03-01T05:08:25;23.80;;;16.57;;
7471;SDS011;3777;48.722;8.110;2023-03-01T05:10:52;24.20;;;17.00;;
7471;SDS011;3777;48.722;8.110;2023-03-01T05:13:20;23.07;;;15.87;;
7471;SDS011;3777;48.722;8.110;2023-03-01T05:15:47;24.37;;;16.07;;
7471;SDS011;3777;48.722;8.110;2023-03-01T05:18:19;25.00;;;16.37;;
7471;SDS011;3777;48.722;8.110;2023-03-01T05:20:52;24.73;;;16.97;;
7471;SDS011;3777;48.722;8.110;2023-03-01T05:23:23;23.20;;;16.47;;
7471;SDS011;3777;48.722;8.110;2023-03-01T05:25:50;24.90;;;16.10;;
7471;SDS011;3777;48.722;8.110;2023-03-01T05:28:18;23.67;;;16.53;;
7471;SDS011;3777;48.722;8.110;2023-03-01T05:30:46;24.00;;;16.43;;
7471;SDS011;3777;48.722;8.110;2023-03-01T05:33:13;22.40;;;16.70;;
7471;SDS011;3777;48.722;8.110;2023-03-01T05:35:40;23.43;;;15.93;;
7471;SDS011;3777;48.722;8.110;2023-03-01T05:38:09;27.40;;;17.63;;
7471;SDS011;3777;48.722;8.110;2023-03-01T05:40:38;22.80;;;16.03;;
7471;SDS011;3777;48.722;8.110;2023-03-01T05:43:05;28.37;;;17.47;;
7471;SDS011;3777;48.722;8.110;2023-03-01T05:45:32;24.57;;;16.07;;
7471;SDS011;3777;48.722;8.110;2023-03-01T05:48:01;23.40;;;16.37;;
7471;SDS011;3777;48.722;8.110;2023-03-01T05:50:32;28.17;;;17.47;;
7471;SDS011;3777;48.722;8.110;2023-03-01T05:53:01;25.50;;;16.73;;
7471;SDS011;3777;48.722;8.110;2023-03-01T05:55:32;23.00;;;16.70;;
7471;SDS011;3777;48.722;8.110;2023-03-01T05:57:59;24.90;;;17.00;;
7471;SDS011;3777;48.722;8.110;2023-03-01T06:00:27;25.93;;;16.40;;
7471;SDS011;3777;48.722;8.110;2023-03-01T06:02:55;22.77;;;16.80;;
7471;SDS011;3777;48.722;8.110;2023-03-01T06:05:23;23.70;;;17.33;;
7471;SDS011;3777;48.722;8.110;2023-03-01T06:07:51;24.67;;;17.77;;
7471;SDS011;3777;48.722;8.110;2023-03-01T06:10:19;24.73;;;17.20;;
7471;SDS011;3777;48.722;8.110;2023-03-01T06:12:48;25.63;;;17.87;;
7471;SDS011;3777;48.722;8.110;2023-03-01T06:15:15;27.53;;;17.40;;
7471;SDS011;3777;48.722;8.110;2023-03-01T06:17:44;25.80;;;17.43;;
7471;SDS011;3777;48.722;8.110;2023-03-01T06:20:12;26.53;;;17.10;;
7471;SDS011;3777;48.722;8.110;2023-03-01T06:22:41;23.57;;;16.57;;
7471;SDS011;3777;48.722;8.110;2023-03-01T06:25:09;30.30;;;18.77;;
7471;SDS011;3777;48.722;8.110;2023-03-01T06:27:37;28.20;;;18.93;;
7471;SDS011;3777;48.722;8.110;2023-03-01T06:30:07;27.80;;;18.90;;
7471;SDS011;3777;48.722;8.110;2023-03-01T06:32:35;26.70;;;18.43;;
7471;SDS011;3777;48.722;8.110;2023-03-01T06:35:03;25.70;;;17.13;;
7471;SDS011;3777;48.722;8.110;2023-03-01T06:37:30;26.70;;;18.70;;
7471;SDS011;3777;48.722;8.110;2023-03-01T06:39:57;25.60;;;17.77;;
7471;SDS011;3777;48.722;8.110;2023-03-01T06:42:24;28.93;;;17.83;;
7471;SDS011;3777;48.722;8.110;2023-03-01T06:44:51;26.10;;;17.43;;
7471;SDS011;3777;48.722;8.110;2023-03-01T06:47:19;30.00;;;18.97;;
7471;SDS011;3777;48.722;8.110;2023-03-01T06:49:46;25.73;;;17.70;;
7471;SDS011;3777;48.722;8.110;2023-03-01T06:52:13;25.60;;;17.63;;
7471;SDS011;3777;48.722;8.110;2023-03-01T06:54:40;25.67;;;17.70;;
7471;SDS011;3777;48.722;8.110;2023-03-01T06:57:07;26.97;;;17.00;;
7471;SDS011;3777;48.722;8.110;2023-03-01T06:59:33;28.97;;;17.93;;
7471;SDS011;3777;48.722;8.110;2023-03-01T07:02:00;26.90;;;17.27;;
7471;SDS011;3777;48.722;8.110;2023-03-01T07:04:29;27.30;;;18.20;;
7471;SDS011;3777;48.722;8.110;2023-03-01T07:06:56;26.90;;;17.97;;
7471;SDS011;3777;48.722;8.110;2023-03-01T07:09:23;26.63;;;17.40;;
7471;SDS011;3777;48.722;8.110;2023-03-01T07:11:50;26.63;;;16.97;;
7471;SDS011;3777;48.722;8.110;2023-03-01T07:14:17;31.27;;;18.13;;
7471;SDS011;3777;48.722;8.110;2023-03-01T07:16:45;26.37;;;18.53;;
7471;SDS011;3777;48.722;8.110;2023-03-01T07:19:12;24.37;;;16.93;;
7471;SDS011;3777;48.722;8.110;2023-03-01T07:21:40;25.30;;;17.73;;
7471;SDS011;3777;48.722;8.110;2023-03-01T07:24:07;25.17;;;17.13;;
7471;SDS011;3777;48.722;8.110;2023-03-01T07:26:34;24.27;;;17.27;;
7471;SDS011;3777;48.722;8.110;2023-03-01T07:29:01;21.90;;;16.50;;
7471;SDS011;3777;48.722;8.110;2023-03-01T07:31:29;23.63;;;17.37;;
7471;SDS011;3777;48.722;8.110;2023-03-01T07:33:57;25.73;;;17.57;;
7471;SDS011;3777;48.722;8.110;2023-03-01T07:36:24;27.97;;;17.93;;
7471;SDS011;3777;48.722;8.110;2023-03-01T07:38:52;26.60;;;17.37;;
7471;SDS011;3777;48.722;8.110;2023-03-01T07:41:20;25.87;;;17.23;;
7471;SDS011;3777;48.722;8.110;2023-03-01T07:43:47;25.67;;;17.23;;
7471;SDS011;3777;48.722;8.110;2023-03-01T07:46:14;25.40;;;18.13;;
7471;SDS011;3777;48.722;8.110;2023-03-01T07:48:42;25.47;;;18.07;;
7471;SDS011;3777;48.722;8.110;2023-03-01T07:51:10;24.17;;;16.93;;
7471;SDS011;3777;48.722;8.110;2023-03-01T07:53:37;25.77;;;17.83;;
7471;SDS011;3777;48.722;8.110;2023-03-01T07:56:06;24.50;;;17.37;;
7471;SDS011;3777;48.722;8.110;2023-03-01T07:58:34;24.70;;;18.33;;
7471;SDS011;3777;48.722;8.110;2023-03-01T08:01:02;24.13;;;16.10;;
7471;SDS011;3777;48.722;8.110;2023-03-01T08:03:30;28.23;;;18.20;;
7471;SDS011;3777;48.722;8.110;2023-03-01T08:05:58;24.53;;;18.30;;
7471;SDS011;3777;48.722;8.110;2023-03-01T08:08:26;23.17;;;16.90;;
7471;SDS011;3777;48.722;8.110;2023-03-01T08:10:55;22.07;;;16.60;;
7471;SDS011;3777;48.722;8.110;2023-03-01T08:13:24;24.50;;;16.87;;
7471;SDS011;3777;48.722;8.110;2023-03-01T08:15:52;26.70;;;16.47;;
7471;SDS011;3777;48.722;8.110;2023-03-01T08:18:20;23.30;;;17.00;;
7471;SDS011;3777;48.722;8.110;2023-03-01T08:20:47;25.97;;;17.17;;
7471;SDS011;3777;48.722;8.110;2023-03-01T08:23:14;23.63;;;17.30;;
7471;SDS011;3777;48.722;8.110;2023-03-01T08:25:41;23.47;;;16.47;;
7471;SDS011;3777;48.722;8.110;2023-03-01T08:28:08;23.17;;;16.97;;
7471;SDS011;3777;48.722;8.110;2023-03-01T08:30:36;24.07;;;17.30;;
7471;SDS011;3777;48.722;8.110;2023-03-01T08:33:03;23.40;;;16.97;;
7471;SDS011;3777;48.722;8.110;2023-03-01T08:35:30;22.43;;;16.63;;
7471;SDS011;3777;48.722;8.110;2023-03-01T08:37:57;22.40;;;17.13;;
7471;SDS011;3777;48.722;8.110;2023-03-01T08:40:24;21.67;;;16.97;;
7471;SDS011;3777;48.722;8.110;2023-03-01T08:42:51;24.03;;;16.70;;
7471;SDS011;3777;48.722;8.110;2023-03-01T08:45:18;23.87;;;17.20;;
7471;SDS011;3777;48.722;8.110;2023-03-01T08:47:46;24.87;;;17.00;;
7471;SDS011;3777;48.722;8.110;2023-03-01T08:50:13;23.87;;;17.07;;
7471;SDS011;3777;48.722;8.110;2023-03-01T08:52:40;22.10;;;17.50;;
7471;SDS011;3777;48.722;8.110;2023-03-01T08:55:08;25.73;;;17.33;;
7471;SDS011;3777;48.722;8.110;2023-03-01T08:57:35;22.73;;;16.20;;
7471;SDS011;3777;48.722;8.110;2023-03-01T09:00:02;22.20;;;17.00;;
7471;SDS011;3777;48.722;8.110;2023-03-01T09:02:36;23.40;;;17.60;;
7471;SDS011;3777;48.722;8.110;2023-03-01T09:05:05;25.83;;;17.50;;
7471;SDS011;3777;48.722;8.110;2023-03-01T09:07:32;24.23;;;17.33;;
7471;SDS011;3777;48.722;8.110;2023-03-01T09:09:59;22.97;;;16.53;;
7471;SDS011;3777;48.722;8.110;2023-03-01T09:12:26;22.90;;;16.73;;
7471;SDS011;3777;48.722;8.110;2023-03-01T09:14:53;23.27;;;16.73;;
7471;SDS011;3777;48.722;8.110;2023-03-01T09:17:20;24.17;;;18.03;;
7471;SDS011;3777;48.722;8.110;2023-03-01T09:19:47;23.73;;;17.07;;
7471;SDS011;3777;48.722;8.110;2023-03-01T09:22:16;22.83;;;17.37;;
7471;SDS011;3777;48.722;8.110;2023-03-01T09:24:43;23.30;;;17.33;;
7471;SDS011;3777;48.722;8.110;2023-03-01T09:27:10;22.97;;;17.70;;
7471;SDS011;3777;48.722;8.110;2023-03-01T09:29:39;22.50;;;17.90;;
7471;SDS011;3777;48.722;8.110;2023-03-01T09:32:07;23.97;;;17.37;;
7471;SDS011;3777;48.722;8.110;2023-03-01T09:34:34;22.17;;;17.30;;
7471;SDS011;3777;48.722;8.110;2023-03-01T09:37:23;25.27;;;17.53;;
7471;SDS011;3777;48.722;8.110;2023-03-01T09:39:51;22.00;;;17.37;;
7471;SDS011;3777;48.722;8.110;2023-03-01T09:42:18;25.63;;;18.23;;
7471;SDS011;3777;48.722;8.110;2023-03-01T09:44:46;23.73;;;17.37;;
7471;SDS011;3777;48.722;8.110;2023-03-01T09:47:17;23.27;;;17.27;;
7471;SDS011;3777;48.722;8.110;2023-03-01T09:49:47;27.03;;;18.07;;
7471;SDS011;3777;48.722;8.110;2023-03-01T09:52:33;22.83;;;17.37;;
7471;SDS011;3777;48.722;8.110;2023-03-01T09:55:08;22.57;;;17.23;;
7471;SDS011;3777;48.722;8.110;2023-03-01T09:57:38;23.17;;;17.47;;
7471;SDS011;3777;48.722;8.110;2023-03-01T10:00:17;24.27;;;17.30;;
7471;SDS011;3777;48.722;8.110;2023-03-01T10:02:51;21.97;;;17.20;;
7471;SDS011;3777;48.722;8.110;2023-03-01T10:05:29;22.50;;;17.57;;
7471;SDS011;3777;48.722;8.110;2023-03-01T10:08:06;22.03;;;16.90;;
7471;SDS011;3777;48.722;8.110;2023-03-01T10:10:54;22.23;;;17.90;;
7471;SDS011;3777;48.722;8.110;2023-03-01T10:13:23;23.30;;;17.53;;
7471;SDS011;3777;48.722;8.110;2023-03-01T10:15:53;20.97;;;16.80;;
7471;SDS011;3777;48.722;8.110;2023-03-01T10:18:23;24.40;;;17.33;;
7471;SDS011;3777;48.722;8.110;2023-03-01T10:20:53;22.73;;;17.47;;
7471;SDS011;3777;48.722;8.110;2023-03-01T10:23:24;21.83;;;17.23;;
7471;SDS011;3777;48.722;8.110;2023-03-01T10:25:56;22.03;;;18.30;;
7471;SDS011;3777;48.722;8.110;2023-03-01T10:28:40;22.23;;;17.77;;
7471;SDS011;3777;48.722;8.110;2023-03-01T10:31:13;22.63;;;17.23;;
7471;SDS011;3777;48.722;8.110;2023-03-01T10:33:44;21.43;;;17.60;;
7471;SDS011;3777;48.722;8.110;2023-03-01T10:36:12;22.30;;;17.60;;
7471;SDS011;3777;48.722;8.110;2023-03-01T10:38:51;22.30;;;17.60;;
7471;SDS011;3777;48.722;8.110;2023-03-01T10:41:20;21.30;;;16.83;;
7471;SDS011;3777;48.722;8.110;2023-03-01T10:43:50;20.63;;;17.73;;
7471;SDS011;3777;48.722;8.110;2023-03-01T10:46:22;24.50;;;18.00;;
7471;SDS011;3777;48.722;8.110;2023-03-01T10:49:07;22.93;;;18.47;;
7471;SDS011;3777;48.722;8.110;2023-03-01T10:51:40;20.87;;;17.57;;
7471;SDS011;3777;48.722;8.110;2023-03-01T10:54:16;20.67;;;17.83;;
7471;SDS011;3777;48.722;8.110;2023-03-01T10:56:48;23.43;;;18.10;;
7471;SDS011;3777;48.722;8.110;2023-03-01T10:59:27;21.20;;;17.67;;
7471;SDS011;3777;48.722;8.110;2023-03-01T11:04:58;21.77;;;18.47;;
7471;SDS011;3777;48.722;8.110;2023-03-01T11:07:26;24.37;;;18.57;;
7471;SDS011;3777;48.722;8.110;2023-03-01T11:09:55;22.03;;;18.00;;
7471;SDS011;3777;48.722;8.110;2023-03-01T11:12:22;22.27;;;18.00;;
7471;SDS011;3777;48.722;8.110;2023-03-01T11:14:50;21.77;;;18.17;;
7471;SDS011;3777;48.722;8.110;2023-03-01T11:17:21;22.70;;;18.10;;
7471;SDS011;3777;48.722;8.110;2023-03-01T11:22:46;22.47;;;18.43;;
7471;SDS011;3777;48.722;8.110;2023-03-01T11:25:17;23.07;;;18.97;;
7471;SDS011;3777;48.722;8.110;2023-03-01T11:27:49;21.47;;;18.73;;
7471;SDS011;3777;48.722;8.110;2023-03-01T11:30:18;21.30;;;17.80;;
7471;SDS011;3777;48.722;8.110;2023-03-01T11:32:50;21.93;;;17.47;;
7471;SDS011;3777;48.722;8.110;2023-03-01T11:35:27;23.67;;;18.50;;
7471;SDS011;3777;48.722;8.110;2023-03-01T11:37:59;21.93;;;18.30;;
7471;SDS011;3777;48.722;8.110;2023-03-01T11:40:39;22.37;;;18.20;;
7471;SDS011;3777;48.722;8.110;2023-03-01T11:43:11;22.80;;;18.10;;
7471;SDS011;3777;48.722;8.110;2023-03-01T11:45:47;22.70;;;18.20;;
7471;SDS011;3777;48.722;8.110;2023-03-01T11:48:34;23.13;;;18.60;;
7471;SDS011;3777;48.722;8.110;2023-03-01T11:51:15;26.43;;;18.33;;
7471;SDS011;3777;48.722;8.110;2023-03-01T11:53:59;22.50;;;18.60;;
7471;SDS011;3777;48.722;8.110;2023-03-01T11:56:35;23.27;;;17.90;;
7471;SDS011;3777;48.722;8.110;2023-03-01T11:59:13;24.77;;;19.03;;
7471;SDS011;3777;48.722;8.110;2023-03-01T12:01:58;23.70;;;18.30;;
7471;SDS011;3777;48.722;8.110;2023-03-01T12:04:59;23.47;;;17.47;;
7471;SDS011;3777;48.722;8.110;2023-03-01T12:07:46;23.83;;;18.93;;
7471;SDS011;3777;48.722;8.110;2023-03-01T12:10:20;22.10;;;17.67;;
7471;SDS011;3777;48.722;8.110;2023-03-01T12:21:43;21.27;;;17.40;;
7471;SDS011;3777;48.722;8.110;2023-03-01T12:24:29;23.70;;;18.03;;
7471;SDS011;3777;48.722;8.110;2023-03-01T12:27:22;23.70;;;18.33;;
7471;SDS011;3777;48.722;8.110;2023-03-01T12:30:09;24.70;;;18.07;;
7471;SDS011;3777;48.722;8.110;2023-03-01T12:32:52;22.83;;;18.07;;
7471;SDS011;3777;48.722;8.110;2023-03-01T12:35:32;26.87;;;18.60;;
7471;SDS011;3777;48.722;8.110;2023-03-01T12:38:08;24.93;;;18.63;;
7471;SDS011;3777;48.722;8.110;2023-03-01T12:40:55;24.67;;;18.20;;
7471;SDS011;3777;48.722;8.110;2023-03-01T12:43:41;24.73;;;18.20;;
7471;SDS011;3777;48.722;8.110;2023-03-01T12:46:24;26.50;;;18.23;;
7471;SDS011;3777;48.722;8.110;2023-03-01T12:49:02;26.97;;;17.53;;
7471;SDS011;3777;48.722;8.110;2023-03-01T12:51:37;23.97;;;18.43;;
7471;SDS011;3777;48.722;8.110;2023-03-01T12:54:07;22.43;;;17.93;;
7471;SDS011;3777;48.722;8.110;2023-03-01T12:56:41;24.33;;;18.23;;
7471;SDS011;3777;48.722;8.110;2023-03-01T12:59:17;23.90;;;18.03;;
7471;SDS011;3777;48.722;8.110;2023-03-01T13:01:53;26.03;;;18.80;;
7471;SDS011;3777;48.722;8.110;2023-03-01T13:04:40;23.57;;;17.93;;
7471;SDS011;3777;48.722;8.110;2023-03-01T13:07:21;24.00;;;17.77;;
7471;SDS011;3777;48.722;8.110;2023-03-01T13:09:55;25.67;;;19.30;;
7471;SDS011;3777;48.722;8.110;2023-03-01T13:15:32;24.87;;;17.87;;
7471;SDS011;3777;48.722;8.110;2023-03-01T13:18:02;23.33;;;18.00;;
7471;SDS011;3777;48.722;8.110;2023-03-01T13:20:51;22.67;;;17.90;;
7471;SDS011;3777;48.722;8.110;2023-03-01T13:23:27;22.07;;;16.93;;
7471;SDS011;3777;48.722;8.110;2023-03-01T13:26:01;25.00;;;17.93;;
7471;SDS011;3777;48.722;8.110;2023-03-01T13:28:40;25.50;;;19.17;;
7471;SDS011;3777;48.722;8.110;2023-03-01T13:34:41;24.50;;;17.67;;
7471;SDS011;3777;48.722;8.110;2023-03-01T13:37:09;22.57;;;17.80;;
7471;SDS011;3777;48.722;8.110;2023-03-01T13:39:44;25.83;;;17.50;;
7471;SDS011;3777;48.722;8.110;2023-03-01T13:45:16;24.23;;;17.33;;
7471;SDS011;3777;48.722;8.110;2023-03-01T13:47:53;23.57;;;18.10;;
7471;SDS011;3777;48.722;8.110;2023-03-01T13:50:25;25.30;;;19.83;;
7471;SDS011;3777;48.722;8.110;2023-03-01T13:52:55;24.43;;;17.63;;
7471;SDS011;3777;48.722;8.110;2023-03-01T13:55:27;20.77;;;16.97;;
7471;SDS011;3777;48.722;8.110;2023-03-01T13:58:03;22.57;;;17.73;;
7471;SDS011;3777;48.722;8.110;2023-03-01T14:00:41;24.40;;;17.57;;
7471;SDS011;3777;48.722;8.110;2023-03-01T14:03:12;25.60;;;19.23;;
7471;SDS011;3777;48.722;8.110;2023-03-01T14:05:43;23.70;;;18.03;;
7471;SDS011;3777;48.722;8.110;2023-03-01T14:08:25;26.10;;;18.53;;
7471;SDS011;3777;48.722;8.110;2023-03-01T14:10:56;24.43;;;17.87;;
7471;SDS011;3777;48.722;8.110;2023-03-01T14:13:49;22.23;;;17.80;;
7471;SDS011;3777;48.722;8.110;2023-03-01T14:16:29;23.00;;;17.57;;
7471;SDS011;3777;48.722;8.110;2023-03-01T14:19:08;25.37;;;18.00;;
7471;SDS011;3777;48.722;8.110;2023-03-01T14:21:44;25.20;;;17.53;;
7471;SDS011;3777;48.722;8.110;2023-03-01T14:24:17;24.50;;;17.57;;
7471;SDS011;3777;48.722;8.110;2023-03-01T14:26:44;22.90;;;17.80;;
7471;SDS011;3777;48.722;8.110;2023-03-01T14:29:25;23.67;;;18.47;;
7471;SDS011;3777;48.722;8.110;2023-03-01T14:31:53;23.27;;;18.27;;
7471;SDS011;3777;48.722;8.110;2023-03-01T14:34:20;24.00;;;17.63;;
7471;SDS011;3777;48.722;8.110;2023-03-01T14:36:49;23.37;;;17.43;;
7471;SDS011;3777;48.722;8.110;2023-03-01T14:39:17;25.77;;;18.50;;
7471;SDS011;3777;48.722;8.110;2023-03-01T14:41:46;22.97;;;17.90;;
7471;SDS011;3777;48.722;8.110;2023-03-01T14:44:15;23.30;;;17.60;;
7471;SDS011;3777;48.722;8.110;2023-03-01T14:46:51;24.87;;;18.30;;
7471;SDS011;3777;48.722;8.110;2023-03-01T14:49:19;27.73;;;19.17;;
7471;SDS011;3777;48.722;8.110;2023-03-01T14:51:51;23.23;;;17.90;;
7471;SDS011;3777;48.722;8.110;2023-03-01T14:54:21;25.83;;;18.33;;
7471;SDS011;3777;48.722;8.110;2023-03-01T14:56:52;23.70;;;18.20;;
7471;SDS011;3777;48.722;8.110;2023-03-01T14:59:21;23.07;;;17.77;;
7471;SDS011;3777;48.722;8.110;2023-03-01T15:01:49;24.60;;;18.40;;
7471;SDS011;3777;48.722;8.110;2023-03-01T15:04:19;24.47;;;18.27;;
7471;SDS011;3777;48.722;8.110;2023-03-01T15:06:47;24.17;;;17.80;;
7471;SDS011;3777;48.722;8.110;2023-03-01T15:09:18;24.47;;;16.90;;
7471;SDS011;3777;48.722;8.110;2023-03-01T15:11:46;24.50;;;17.97;;
7471;SDS011;3777;48.722;8.110;2023-03-01T15:14:36;24.30;;;18.20;;
7471;SDS011;3777;48.722;8.110;2023-03-01T15:17:16;25.27;;;18.20;;
7471;SDS011;3777;48.722;8.110;2023-03-01T15:19:50;23.10;;;18.20;;
7471;SDS011;3777;48.722;8.110;2023-03-01T15:22:18;25.13;;;17.30;;
7471;SDS011;3777;48.722;8.110;2023-03-01T15:24:46;24.33;;;17.63;;
7471;SDS011;3777;48.722;8.110;2023-03-01T15:27:14;26.77;;;18.20;;
7471;SDS011;3777;48.722;8.110;2023-03-01T15:29:47;23.87;;;17.23;;
7471;SDS011;3777;48.722;8.110;2023-03-01T15:40:52;23.23;;;17.50;;
7471;SDS011;3777;48.722;8.110;2023-03-01T15:46:12;22.27;;;17.50;;